createdAt,value
2023-11-24T00:02:19.472Z,97140.78
2023-11-24T00:04:48.804Z,97141.75
2023-11-24T00:07:18.584Z,97146.22
2023-11-24T00:09:48.182Z,97130.69
2023-11-24T00:12:16.257Z,97135.66
2023-11-24T00:14:44.220Z,97128.50
2023-11-24T00:17:12.560Z,97133.75
2023-11-24T00:19:40.543Z,97139.41
2023-11-24T00:22:09.857Z,97148.56
2023-11-24T00:24:38.785Z,97152.06
2023-11-24T00:27:07.273Z,97159.09
2023-11-24T00:29:35.264Z,97143.69
2023-11-24T00:32:05.211Z,97130.69
2023-11-24T00:34:33.281Z,97152.91
2023-11-24T00:37:01.307Z,97145.03
2023-11-24T00:39:30.747Z,97162.75
2023-11-24T00:42:01.101Z,97142.38
2023-11-24T00:44:29.044Z,97155.72
2023-11-24T00:46:57.044Z,97178.38
2023-11-24T00:49:24.984Z,97182.97
2023-11-24T00:51:53.193Z,97247.38
2023-11-24T00:54:21.250Z,97183.22
2023-11-24T00:56:50.614Z,97193.97
2023-11-24T00:59:18.771Z,97199.06
2023-11-24T01:01:46.756Z,97199.53
2023-11-24T01:04:14.863Z,97184.97
2023-11-24T01:06:43.067Z,97196.38
2023-11-24T01:09:11.365Z,97186.56
2023-11-24T01:11:39.426Z,97195.75
2023-11-24T01:14:08.810Z,97173.47
2023-11-24T01:16:36.843Z,97186.16
2023-11-24T01:19:08.081Z,97193.41
2023-11-24T01:21:36.574Z,97194.38
2023-11-24T01:24:04.653Z,97188.78
2023-11-24T01:26:32.659Z,97185.13
2023-11-24T01:29:01.149Z,97172.78
2023-11-24T01:31:31.617Z,97173.56
2023-11-24T01:33:59.722Z,97176.16
2023-11-24T01:36:27.977Z,97173.50
2023-11-24T01:38:56.242Z,97158.97
2023-11-24T01:41:24.273Z,97163.66
2023-11-24T01:44:01.463Z,97165.72
2023-11-24T01:46:31.237Z,97145.84
2023-11-24T01:48:59.253Z,97155.47
2023-11-24T01:51:27.327Z,97159.19
2023-11-24T01:53:55.269Z,97154.00
2023-11-24T01:56:23.443Z,97146.88
2023-11-24T01:58:51.470Z,97169.22
2023-11-24T02:01:19.447Z,97165.94
2023-11-24T02:03:48.876Z,97177.94
2023-11-24T02:06:17.185Z,97166.34
2023-11-24T02:08:45.471Z,97161.22
2023-11-24T02:11:13.480Z,97152.53
2023-11-24T02:13:41.517Z,97160.81
2023-11-24T02:16:10.946Z,97152.25
2023-11-24T02:18:39.135Z,97147.97
2023-11-24T02:21:08.684Z,97149.66
2023-11-24T02:23:38.080Z,97128.34
2023-11-24T02:26:06.349Z,97129.81
2023-11-24T02:28:34.328Z,97120.97
2023-11-24T02:31:04.681Z,97113.84
2023-11-24T02:33:34.859Z,97108.19
2023-11-24T02:36:06.868Z,97107.97
2023-11-24T02:38:34.965Z,97104.19
2023-11-24T02:41:06.788Z,97109.78
2023-11-24T02:43:34.991Z,97101.78
2023-11-24T02:46:03.057Z,97110.16
2023-11-24T02:48:31.163Z,97119.28
2023-11-24T02:50:59.179Z,97111.28
2023-11-24T02:53:27.166Z,97110.59
2023-11-24T02:55:56.358Z,97109.84
2023-11-24T02:58:26.785Z,97106.13
2023-11-24T03:00:55.394Z,97112.72
2023-11-24T03:03:23.917Z,97115.91
2023-11-24T03:05:52.909Z,97115.00
2023-11-24T03:08:21.302Z,97114.50
2023-11-24T03:10:50.306Z,97108.50
2023-11-24T03:13:19.085Z,97117.84
2023-11-24T03:15:48.462Z,97100.19
2023-11-24T03:18:17.978Z,97094.41
2023-11-24T03:20:46.455Z,97093.63
2023-11-24T03:23:14.572Z,97089.41
2023-11-24T03:25:42.779Z,97091.28
2023-11-24T03:28:10.898Z,97084.94
2023-11-24T03:30:38.920Z,97081.19
2023-11-24T03:33:08.326Z,97075.44
2023-11-24T03:35:36.327Z,97077.66
2023-11-24T03:38:04.338Z,97074.06
2023-11-24T03:40:32.324Z,97081.88
2023-11-24T03:43:03.469Z,97075.00
2023-11-24T03:45:31.996Z,97076.34
2023-11-24T03:48:00.116Z,97073.69
2023-11-24T03:50:29.512Z,97068.13
2023-11-24T03:52:57.565Z,97066.69
2023-11-24T03:55:25.868Z,97069.00
2023-11-24T03:57:53.955Z,97067.53
2023-11-24T04:00:22.690Z,97067.34
2023-11-24T04:02:50.665Z,97066.63
2023-11-24T04:05:18.670Z,97062.50
2023-11-24T04:07:48.481Z,97058.50
2023-11-24T04:10:17.529Z,97062.13
2023-11-24T04:12:45.469Z,97058.88
2023-11-24T04:15:14.482Z,97061.31
2023-11-24T04:17:42.535Z,97044.00
2023-11-24T04:20:11.200Z,97044.50
2023-11-24T04:22:39.291Z,97050.16
2023-11-24T04:25:10.571Z,97048.22
2023-11-24T04:27:39.018Z,97043.28
2023-11-24T04:30:08.926Z,97043.03
2023-11-24T04:32:37.059Z,97033.00
2023-11-24T04:35:06.551Z,97033.47
2023-11-24T04:37:34.639Z,97033.25
2023-11-24T04:40:02.915Z,97031.53
2023-11-24T04:42:32.387Z,97026.97
2023-11-24T04:45:00.414Z,97017.97
2023-11-24T04:47:28.444Z,97024.03
2023-11-24T04:49:56.444Z,97012.69
2023-11-24T04:52:24.479Z,97014.63
2023-11-24T04:54:52.512Z,97012.06
2023-11-24T04:57:20.541Z,97001.53
2023-11-24T04:59:49.935Z,97005.78
2023-11-24T05:02:18.047Z,96995.47
2023-11-24T05:04:47.285Z,97000.81
2023-11-24T05:07:19.185Z,96988.34
2023-11-24T05:09:47.191Z,96982.53
2023-11-24T05:12:15.259Z,96982.78
2023-11-24T05:14:43.209Z,96976.75
2023-11-24T05:17:12.672Z,96984.59
2023-11-24T05:19:41.025Z,96984.94
2023-11-24T05:22:09.058Z,96975.41
2023-11-24T05:24:40.471Z,96979.03
2023-11-24T05:27:08.534Z,96975.16
2023-11-24T05:29:36.515Z,96978.56
2023-11-24T05:32:05.144Z,96954.59
2023-11-24T05:34:36.478Z,96967.44
2023-11-24T05:37:07.615Z,96955.59
2023-11-24T05:39:36.303Z,96951.94
2023-11-24T05:42:05.528Z,96961.50
2023-11-24T05:44:33.770Z,96957.16
2023-11-24T05:47:05.618Z,96972.53
2023-11-24T05:49:41.937Z,97000.19
2023-11-24T05:52:16.524Z,96980.22
2023-11-24T05:54:44.723Z,96997.66
2023-11-24T05:57:12.675Z,96988.31
2023-11-24T05:59:41.112Z,96989.19
2023-11-24T06:02:09.140Z,96987.75
2023-11-24T06:04:39.299Z,96977.03
2023-11-24T06:07:07.512Z,96986.16
2023-11-24T06:09:35.507Z,96976.56
2023-11-24T06:12:03.647Z,96976.72
2023-11-24T06:14:31.735Z,96976.94
2023-11-24T06:16:59.818Z,96977.94
2023-11-24T06:19:27.845Z,96971.03
2023-11-24T06:21:57.214Z,96965.38
2023-11-24T06:24:25.497Z,96952.44
2023-11-24T06:26:53.687Z,96952.31
2023-11-24T06:29:21.707Z,96949.44
2023-11-24T06:31:49.700Z,96948.91
2023-11-24T06:34:18.730Z,96951.13
2023-11-24T06:36:47.358Z,96943.88
2023-11-24T06:39:17.035Z,96951.81
2023-11-24T06:41:45.179Z,96954.75
2023-11-24T06:44:13.272Z,96948.69
2023-11-24T06:46:41.259Z,96936.72
2023-11-24T06:49:09.650Z,96936.25
2023-11-24T06:52:02.320Z,96933.69
2023-11-24T06:54:38.406Z,96938.16
2023-11-24T06:57:06.948Z,96932.50
2023-11-24T06:59:34.974Z,96941.44
2023-11-24T07:02:04.755Z,96936.84
2023-11-24T07:04:32.879Z,96945.31
2023-11-24T07:07:00.924Z,96946.13
2023-11-24T07:09:29.508Z,96949.31
2023-11-24T07:11:58.827Z,96952.91
2023-11-24T07:14:26.852Z,96949.16
2023-11-24T07:16:54.926Z,96943.59
2023-11-24T07:19:23.916Z,96948.56
2023-11-24T07:21:51.951Z,96943.84
2023-11-24T07:24:19.937Z,96950.38
2023-11-24T07:26:47.934Z,96943.44
2023-11-24T07:29:17.346Z,96943.06
2023-11-24T07:31:46.431Z,96939.06
2023-11-24T07:34:15.071Z,96956.53
2023-11-24T07:36:43.118Z,96948.38
2023-11-24T07:39:12.238Z,96943.44
2023-11-24T07:41:40.293Z,96944.81
2023-11-24T07:44:08.597Z,96949.13
2023-11-24T07:46:38.086Z,96947.91
2023-11-24T07:49:06.233Z,96948.53
2023-11-24T07:51:35.490Z,96943.94
2023-11-24T07:54:04.580Z,96937.97
2023-11-24T07:56:33.046Z,96942.81
2023-11-24T07:59:01.151Z,96944.22
2023-11-24T08:01:29.244Z,96934.25
2023-11-24T08:03:58.712Z,96929.09
2023-11-24T08:06:26.728Z,96930.28
2023-11-24T08:08:57.557Z,96925.19
2023-11-24T08:11:25.636Z,96921.41
2023-11-24T08:13:55.045Z,96910.84
2023-11-24T08:16:26.662Z,96910.25
2023-11-24T08:18:54.861Z,96915.50
2023-11-24T08:21:24.596Z,96911.41
2023-11-24T08:23:52.563Z,96917.72
2023-11-24T08:26:22.479Z,96903.31
2023-11-24T08:28:51.049Z,96901.00
2023-11-24T08:31:19.051Z,96906.88
2023-11-24T08:33:47.407Z,96901.81
2023-11-24T08:36:15.477Z,96899.56
2023-11-24T08:38:44.794Z,96892.34
2023-11-24T08:41:23.752Z,96889.22
2023-11-24T08:43:58.956Z,96892.69
2023-11-24T08:46:27.669Z,96881.94
2023-11-24T08:48:56.142Z,96873.78
2023-11-24T08:51:31.112Z,96868.41
2023-11-24T08:54:00.585Z,96874.13
2023-11-24T08:56:30.083Z,96875.69
2023-11-24T08:58:58.094Z,96882.63
2023-11-24T09:01:26.171Z,96874.06
2023-11-24T09:03:55.650Z,96866.25
2023-11-24T09:06:28.184Z,96866.75
2023-11-24T09:08:57.737Z,96856.56
2023-11-24T09:11:27.686Z,96857.44
2023-11-24T09:13:55.753Z,96861.47
2023-11-24T09:16:23.788Z,96851.19
2023-11-24T09:18:52.035Z,96844.53
2023-11-24T09:21:24.434Z,96846.47
2023-11-24T09:24:05.993Z,96837.91
2023-11-24T09:26:36.455Z,96829.59
2023-11-24T09:29:04.454Z,96825.34
2023-11-24T09:31:36.192Z,96828.47
2023-11-24T09:34:04.891Z,96814.19
2023-11-24T09:36:33.018Z,96828.09
2023-11-24T09:39:01.089Z,96832.00
2023-11-24T09:41:29.759Z,96818.50
2023-11-24T09:44:01.169Z,96829.34
2023-11-24T09:46:36.448Z,96821.28
2023-11-24T09:49:10.456Z,96813.94
2023-11-24T09:51:38.618Z,96809.97
2023-11-24T09:54:07.309Z,96807.41
2023-11-24T09:56:35.902Z,96795.84
2023-11-24T09:59:09.782Z,96792.66
2023-11-24T10:01:38.655Z,96792.94
2023-11-24T10:04:07.944Z,96784.53
2023-11-24T10:06:38.448Z,96783.63
2023-11-24T10:09:07.879Z,96779.69
2023-11-24T10:11:39.604Z,96769.56
2023-11-24T10:14:13.033Z,96770.44
2023-11-24T10:16:42.955Z,96763.50
2023-11-24T10:19:19.355Z,96757.38
2023-11-24T10:21:49.963Z,96760.09
2023-11-24T10:24:18.004Z,96756.03
2023-11-24T10:26:47.250Z,96763.69
2023-11-24T10:29:17.868Z,96758.81
2023-11-24T10:31:46.103Z,96747.25
2023-11-24T10:34:19.011Z,96752.53
2023-11-24T10:36:50.918Z,96759.78
2023-11-24T10:39:19.589Z,96747.09
2023-11-24T10:41:52.829Z,96766.78
2023-11-24T10:44:22.524Z,96756.19
2023-11-24T10:46:50.613Z,96753.19
2023-11-24T10:49:23.773Z,96746.66
2023-11-24T10:52:00.977Z,96743.31
2023-11-24T10:54:35.353Z,96755.00
2023-11-24T10:57:04.177Z,96748.69
2023-11-24T10:59:36.244Z,96750.91
2023-11-24T11:02:17.821Z,96757.31
2023-11-24T11:05:04.927Z,96755.78
2023-11-24T11:07:37.055Z,96745.16
2023-11-24T11:10:13.944Z,96751.81
2023-11-24T11:12:44.999Z,96742.81
2023-11-24T11:15:14.389Z,96736.78
2023-11-24T11:17:42.864Z,96734.84
2023-11-24T11:20:16.280Z,96727.94
2023-11-24T11:22:45.077Z,96731.94
2023-11-24T11:25:43.654Z,96731.56
2023-11-24T11:28:36.640Z,96732.81
2023-11-24T11:31:28.975Z,96718.72
2023-11-24T11:34:01.242Z,96732.94
2023-11-24T11:36:34.358Z,96736.28
2023-11-24T11:39:04.766Z,96732.19
2023-11-24T11:41:40.008Z,96728.88
2023-11-24T11:44:18.821Z,96738.16
2023-11-24T11:47:25.376Z,96745.72
2023-11-24T11:49:55.815Z,96745.47
2023-11-24T11:52:25.549Z,96741.75
2023-11-24T11:54:53.985Z,96749.28
2023-11-24T11:57:23.276Z,96747.25
2023-11-24T11:59:51.465Z,96744.81
2023-11-24T12:02:22.766Z,96746.31
2023-11-24T12:04:50.943Z,96744.00
2023-11-24T12:07:20.496Z,96720.44
2023-11-24T12:09:50.892Z,96718.94
2023-11-24T12:12:19.507Z,96721.88
2023-11-24T12:14:50.009Z,96722.91
2023-11-24T12:17:19.098Z,96720.25
2023-11-24T12:19:50.144Z,96721.84
2023-11-24T12:22:19.698Z,96709.88
2023-11-24T12:24:48.051Z,96719.94
2023-11-24T12:27:16.440Z,96695.03
2023-11-24T12:29:47.452Z,96691.09
2023-11-24T12:32:15.932Z,96684.34
2023-11-24T12:34:48.431Z,96682.78
2023-11-24T12:37:16.479Z,96670.44
2023-11-24T12:39:44.645Z,96670.81
2023-11-24T12:42:13.201Z,96651.97
2023-11-24T12:44:42.776Z,96651.97
2023-11-24T12:47:15.184Z,96654.28
2023-11-24T12:50:03.532Z,96655.34
2023-11-24T12:52:31.772Z,96644.31
2023-11-24T12:54:59.949Z,96638.78
2023-11-24T12:57:28.008Z,96631.50
2023-11-24T12:59:57.649Z,96632.69
2023-11-24T13:02:28.917Z,96635.81
2023-11-24T13:04:57.236Z,96633.06
2023-11-24T13:07:27.596Z,96648.59
2023-11-24T13:09:55.609Z,96657.75
2023-11-24T13:12:24.313Z,96671.59
2023-11-24T13:14:52.576Z,96667.28
2023-11-24T13:17:22.060Z,96679.81
2023-11-24T13:19:51.161Z,96673.06
2023-11-24T13:22:19.205Z,96666.19
2023-11-24T13:24:48.617Z,96667.16
2023-11-24T13:27:16.715Z,96661.84
2023-11-24T13:29:44.677Z,96657.50
2023-11-24T13:32:12.786Z,96651.84
2023-11-24T13:34:41.375Z,96665.31
2023-11-24T13:37:15.611Z,96666.88
2023-11-24T13:39:50.401Z,96673.50
2023-11-24T13:42:22.935Z,96661.06
2023-11-24T13:44:51.506Z,96642.69
2023-11-24T13:47:19.564Z,96652.44
2023-11-24T13:49:51.396Z,96638.28
2023-11-24T13:52:19.611Z,96648.84
2023-11-24T13:54:47.680Z,96652.66
2023-11-24T13:57:15.690Z,96651.97
2023-11-24T13:59:54.558Z,96639.25
2023-11-24T14:02:22.972Z,96633.69
2023-11-24T14:04:51.411Z,96639.41
2023-11-24T14:07:21.243Z,96641.31
2023-11-24T14:09:50.024Z,96656.00
2023-11-24T14:12:18.112Z,96663.13
2023-11-24T14:14:47.596Z,96646.03
2023-11-24T14:17:15.630Z,96646.78
2023-11-24T14:19:44.869Z,96645.09
2023-11-24T14:22:15.843Z,96638.66
2023-11-24T14:24:45.946Z,96651.25
2023-11-24T14:27:15.066Z,96663.84
2023-11-24T14:29:44.176Z,96666.16
2023-11-24T14:32:15.304Z,96688.66
2023-11-24T14:34:43.635Z,96674.03
2023-11-24T14:37:12.631Z,96669.44
2023-11-24T14:39:45.275Z,96685.25
2023-11-24T14:42:16.254Z,96685.81
2023-11-24T14:44:44.319Z,96684.13
2023-11-24T14:47:14.428Z,96691.63
2023-11-24T14:49:42.678Z,96676.72
2023-11-24T14:52:10.691Z,96692.28
2023-11-24T14:54:38.857Z,96667.53
2023-11-24T14:57:07.281Z,96677.88
2023-11-24T14:59:35.296Z,96689.81
2023-11-24T15:02:08.969Z,96704.16
2023-11-24T15:04:40.410Z,96706.47
2023-11-24T15:07:11.805Z,96692.28
2023-11-24T15:09:43.764Z,96707.06
2023-11-24T15:12:11.950Z,96698.09
2023-11-24T15:14:42.248Z,96690.78
2023-11-24T15:17:17.173Z,96680.22
2023-11-24T15:19:54.127Z,96672.72
2023-11-24T15:22:23.146Z,96664.78
2023-11-24T15:24:54.472Z,96658.75
2023-11-24T15:27:22.645Z,96663.59
2023-11-24T15:29:50.702Z,96669.44
2023-11-24T15:32:22.351Z,96670.28
2023-11-24T15:34:52.984Z,96682.22
2023-11-24T15:37:21.391Z,96693.34
2023-11-24T15:39:57.674Z,96684.75
2023-11-24T15:42:28.749Z,96683.19
2023-11-24T15:44:59.295Z,96667.13
2023-11-24T15:47:28.509Z,96675.78
2023-11-24T15:49:59.509Z,96670.19
2023-11-24T15:52:28.569Z,96671.97
2023-11-24T15:54:58.709Z,96678.13
2023-11-24T15:57:27.793Z,96676.94
2023-11-24T16:00:00.769Z,96683.72
2023-11-24T16:02:33.263Z,96677.69
2023-11-24T16:05:06.270Z,96681.50
2023-11-24T16:07:35.731Z,96684.25
2023-11-24T16:10:15.376Z,96679.16
2023-11-24T16:12:44.373Z,96671.94
2023-11-24T16:15:17.452Z,96672.25
2023-11-24T16:17:47.044Z,96675.47
2023-11-24T16:20:16.690Z,96696.19
2023-11-24T16:22:45.220Z,96677.03
2023-11-24T16:25:14.806Z,96689.94
2023-11-24T16:27:43.037Z,96695.00
2023-11-24T16:30:11.533Z,96683.38
2023-11-24T16:32:39.515Z,96682.31
2023-11-24T16:35:10.307Z,96698.69
2023-11-24T16:37:39.706Z,96682.97
2023-11-24T16:40:09.958Z,96674.00
2023-11-24T16:42:38.096Z,96668.19
2023-11-24T16:45:07.570Z,96670.63
2023-11-24T16:47:35.800Z,96673.03
2023-11-24T16:50:05.102Z,96671.97
2023-11-24T16:52:33.178Z,96664.13
2023-11-24T16:55:04.258Z,96662.69
2023-11-24T16:57:34.793Z,96664.06
2023-11-24T17:00:03.409Z,96666.38
2023-11-24T17:02:31.622Z,96668.28
2023-11-24T17:05:00.922Z,96670.78
2023-11-24T17:07:29.613Z,96666.56
2023-11-24T17:09:58.542Z,96659.63
2023-11-24T17:12:27.931Z,96648.97
2023-11-24T17:14:56.132Z,96657.75
2023-11-24T17:17:24.266Z,96649.47
2023-11-24T17:19:52.857Z,96658.59
2023-11-24T17:22:20.952Z,96656.91
2023-11-24T17:24:49.026Z,96642.56
2023-11-24T17:27:17.222Z,96665.53
2023-11-24T17:29:46.557Z,96661.75
2023-11-24T17:32:14.537Z,96656.28
2023-11-24T17:34:44.166Z,96650.47
2023-11-24T17:37:12.195Z,96655.44
2023-11-24T17:39:41.255Z,96652.03
2023-11-24T17:42:11.101Z,96647.84
2023-11-24T17:44:39.374Z,96629.88
2023-11-24T17:47:08.858Z,96651.56
2023-11-24T17:49:37.604Z,96636.97
2023-11-24T17:52:06.181Z,96640.13
2023-11-24T17:54:34.391Z,96656.97
2023-11-24T17:57:02.716Z,96645.63
2023-11-24T17:59:30.705Z,96652.91
2023-11-24T18:01:58.768Z,96638.44
2023-11-24T18:04:28.221Z,96636.00
2023-11-24T18:06:56.271Z,96620.97
2023-11-24T18:09:24.371Z,96634.41
2023-11-24T18:11:52.349Z,96635.06
2023-11-24T18:14:23.156Z,96617.66
2023-11-24T18:16:51.193Z,96620.72
2023-11-24T18:19:19.202Z,96605.94
2023-11-24T18:21:48.892Z,96611.81
2023-11-24T18:24:17.584Z,96601.25
2023-11-24T18:26:47.071Z,96606.44
2023-11-24T18:29:15.485Z,96603.34
2023-11-24T18:31:43.681Z,96604.38
2023-11-24T18:34:12.787Z,96597.19
2023-11-24T18:36:42.313Z,96601.75
2023-11-24T18:39:13.909Z,96592.56
2023-11-24T18:41:42.050Z,96612.59
2023-11-24T18:44:10.140Z,96613.09
2023-11-24T18:46:38.072Z,96590.28
2023-11-24T18:49:06.466Z,96585.09
2023-11-24T18:51:34.553Z,96593.13
2023-11-24T18:54:02.523Z,96576.69
2023-11-24T18:56:31.880Z,96580.06
2023-11-24T18:58:59.832Z,96571.84
2023-11-24T19:01:27.858Z,96571.09
2023-11-24T19:03:57.685Z,96567.97
2023-11-24T19:06:27.324Z,96582.91
2023-11-24T19:08:56.597Z,96577.50
2023-11-24T19:11:25.019Z,96574.56
2023-11-24T19:13:54.441Z,96561.47
2023-11-24T19:16:22.560Z,96555.59
2023-11-24T19:18:51.034Z,96583.84
2023-11-24T19:21:20.676Z,96571.59
2023-11-24T19:23:50.676Z,96570.63
2023-11-24T19:26:18.687Z,96572.28
2023-11-24T19:28:59.101Z,96580.16
2023-11-24T19:31:35.348Z,96574.97
2023-11-24T19:34:06.690Z,96555.44
2023-11-24T19:37:22.921Z,96557.03
2023-11-24T19:39:53.710Z,96566.44
2023-11-24T19:42:22.739Z,96599.66
2023-11-24T19:44:50.992Z,96601.03
2023-11-24T19:47:20.527Z,96607.88
2023-11-24T19:49:48.945Z,96598.56
2023-11-24T19:52:16.970Z,96603.88
2023-11-24T19:54:44.950Z,96626.28
2023-11-24T19:57:12.950Z,96633.44
2023-11-24T19:59:40.930Z,96632.84
2023-11-24T20:02:09.393Z,96618.78
2023-11-24T20:04:39.091Z,96619.94
2023-11-24T20:07:07.198Z,96634.00
2023-11-24T20:09:37.243Z,96630.41
2023-11-24T20:12:05.611Z,96633.16
2023-11-24T20:14:33.696Z,96641.84
2023-11-24T20:17:01.789Z,96630.31
2023-11-24T20:19:30.088Z,96633.69
2023-11-24T20:21:59.513Z,96628.81
2023-11-24T20:24:28.015Z,96652.28
2023-11-24T20:26:56.142Z,96658.22
2023-11-24T20:29:24.525Z,96666.94
2023-11-24T20:31:52.456Z,96657.97
2023-11-24T20:34:20.520Z,96653.59
2023-11-24T20:36:48.737Z,96654.75
2023-11-24T20:39:20.005Z,96653.69
2023-11-24T20:41:50.373Z,96639.72
2023-11-24T20:44:18.315Z,96669.00
2023-11-24T20:46:46.512Z,96685.38
2023-11-24T20:49:15.056Z,96674.50
2023-11-24T20:51:43.228Z,96688.03
2023-11-24T20:54:11.676Z,96691.47
2023-11-24T20:56:41.033Z,96700.03
2023-11-24T20:59:09.017Z,96702.47
2023-11-24T21:01:37.841Z,96703.31
2023-11-24T21:04:07.848Z,96711.06
2023-11-24T21:06:35.911Z,96715.50
2023-11-24T21:09:04.206Z,96713.66
2023-11-24T21:11:33.487Z,96720.31
2023-11-24T21:14:02.945Z,96716.06
2023-11-24T21:16:31.002Z,96707.75
2023-11-24T21:18:58.998Z,96715.34
2023-11-24T21:21:27.038Z,96718.84
2023-11-24T21:23:55.143Z,96723.56
2023-11-24T21:26:23.248Z,96724.22
2023-11-24T21:28:51.818Z,96731.47
2023-11-24T21:31:21.574Z,96716.63
2023-11-24T21:33:49.932Z,96731.09
2023-11-24T21:36:18.031Z,96732.22
2023-11-24T21:38:45.973Z,96725.50
2023-11-24T21:41:20.461Z,96726.03
2023-11-24T21:43:49.053Z,96723.88
2023-11-24T21:46:21.776Z,96743.31
2023-11-24T21:48:50.557Z,96749.03
2023-11-24T21:51:18.749Z,96759.91
2023-11-24T21:53:46.922Z,96768.47
2023-11-24T21:56:26.612Z,96783.88
2023-11-24T21:58:54.808Z,96772.13
2023-11-24T22:01:24.465Z,96773.47
2023-11-24T22:03:53.484Z,96786.84
2023-11-24T22:06:25.827Z,96791.78
2023-11-24T22:08:54.034Z,96795.09
2023-11-24T22:11:22.020Z,96798.69
2023-11-24T22:13:50.005Z,96809.59
2023-11-24T22:16:18.054Z,96804.53
2023-11-24T22:18:51.104Z,96802.09
2023-11-24T22:21:20.015Z,96813.00
2023-11-24T22:23:48.225Z,96802.63
2023-11-24T22:26:19.446Z,96812.19
2023-11-24T22:28:53.435Z,96822.28
2023-11-24T22:31:21.660Z,96822.28
2023-11-24T22:33:51.554Z,96823.38
2023-11-24T22:36:20.605Z,96833.38
2023-11-24T22:38:49.014Z,96817.16
2023-11-24T22:41:20.118Z,96832.44
2023-11-24T22:43:49.763Z,96838.38
2023-11-24T22:46:21.241Z,96839.88
2023-11-24T22:48:50.791Z,96843.41
2023-11-24T22:51:19.882Z,96842.47
2023-11-24T22:53:47.939Z,96824.19
2023-11-24T22:56:21.306Z,96830.88
2023-11-24T22:58:49.948Z,96836.31
2023-11-24T23:01:20.798Z,96840.03
2023-11-24T23:03:50.523Z,96859.25
2023-11-24T23:06:19.638Z,96858.78
2023-11-24T23:08:47.625Z,96854.94
2023-11-24T23:11:18.951Z,96865.56
2023-11-24T23:13:48.651Z,96867.47
2023-11-24T23:16:17.064Z,96876.78
2023-11-24T23:18:46.444Z,96877.72
2023-11-24T23:21:18.180Z,96883.28
2023-11-24T23:23:48.275Z,96887.16
2023-11-24T23:26:16.903Z,96895.63
2023-11-24T23:28:44.991Z,96891.38
2023-11-24T23:31:13.921Z,96896.19
2023-11-24T23:33:42.520Z,96898.44
2023-11-24T23:36:13.509Z,96896.84
2023-11-24T23:38:43.080Z,96903.16
2023-11-24T23:41:11.227Z,96912.56
2023-11-24T23:43:39.416Z,96910.78
2023-11-24T23:46:08.988Z,96911.00
2023-11-24T23:48:37.360Z,96910.41
2023-11-24T23:51:07.645Z,96913.03
2023-11-24T23:53:35.930Z,96925.44
2023-11-24T23:56:06.813Z,96928.38
2023-11-24T23:58:37.849Z,96928.66
